Time,TemperatureF,DewpointF,PressureIn,WindDirection,WindDirectionDegrees,WindSpeedMPH,WindSpeedGustMPH,Humidity,HourlyPrecipIn,Conditions,Clouds,dailyrainin,SoftwareType,DateUTC
2013-10-16 00:04:00,47.0,44.0,-100.00,SW,215,4.0,9.0,91,-99.99,,,-99.99,,2013-10-16 05:04:00,
2013-10-16 00:10:00,46.0,45.0,-100.00,SW,220,4.0,7.0,95,-99.99,,,-99.99,,2013-10-16 05:10:00,
2013-10-16 00:43:00,46.0,45.0,-100.00,SW,220,4.0,7.0,95,-99.99,,,-99.99,,2013-10-16 05:43:00,
2013-10-16 00:53:00,46.0,45.0,-100.00,SW,220,4.0,7.0,95,-99.99,,,-99.99,,2013-10-16 05:53:00,
2013-10-16 01:03:00,46.0,45.0,-100.00,SW,220,4.0,7.0,95,-99.99,,,-99.99,,2013-10-16 06:03:00,
2013-10-16 01:10:00,46.0,45.0,-100.00,SSW,210,4.0,7.0,96,-99.99,,,-99.99,,2013-10-16 06:10:00,
2013-10-16 01:43:00,46.0,45.0,-100.00,SSW,210,4.0,7.0,96,-99.99,,,-99.99,,2013-10-16 06:43:00,
2013-10-16 01:52:00,46.0,45.0,-100.00,SSW,210,4.0,7.0,96,-99.99,,,-99.99,,2013-10-16 06:52:00,
2013-10-16 02:02:00,46.0,45.0,-100.00,SSW,210,4.0,7.0,96,-99.99,,,-99.99,,2013-10-16 07:02:00,
2013-10-16 02:10:00,46.0,45.0,-100.00,SW,215,4.0,6.0,97,-99.99,,,-99.99,,2013-10-16 07:10:00,
2013-10-16 02:42:00,46.0,45.0,-100.00,SW,215,4.0,6.0,97,-99.99,,,-99.99,,2013-10-16 07:42:00,
2013-10-16 02:53:00,46.0,45.0,-100.00,SW,215,4.0,6.0,97,-99.99,,,-99.99,,2013-10-16 07:53:00,
2013-10-16 03:02:00,46.0,45.0,-100.00,SW,215,4.0,6.0,97,-99.99,,,-99.99,,2013-10-16 08:02:00,
2013-10-16 03:42:00,46.0,45.0,-100.00,SW,225,4.0,7.0,97,-99.99,,,-99.99,,2013-10-16 08:42:00,
2013-10-16 03:52:00,46.0,45.0,-100.00,SW,225,4.0,7.0,97,-99.99,,,-99.99,,2013-10-16 08:52:00,
2013-10-16 04:02:00,46.0,45.0,-100.00,SW,225,4.0,7.0,97,-99.99,,,-99.99,,2013-10-16 09:02:00,
2013-10-16 04:11:00,46.0,45.0,-100.00,SW,225,4.0,7.0,97,-99.99,,,-99.99,,2013-10-16 09:11:00,
2013-10-16 04:43:00,46.0,45.0,-100.00,SW,230,3.0,9.0,97,-99.99,,,-99.99,,2013-10-16 09:43:00,
2013-10-16 04:54:00,46.0,45.0,-100.00,SW,230,3.0,9.0,97,-99.99,,,-99.99,,2013-10-16 09:54:00,
2013-10-16 05:03:00,46.0,45.0,-100.00,SW,230,3.0,9.0,97,-99.99,,,-99.99,,2013-10-16 10:03:00,
2013-10-16 05:42:00,47.0,46.0,-100.00,WSW,245,4.0,7.0,97,-99.99,,,-99.99,,2013-10-16 10:42:00,
2013-10-16 05:53:00,47.0,46.0,-100.00,WSW,245,4.0,7.0,97,-99.99,,,-99.99,,2013-10-16 10:53:00,
2013-10-16 06:03:00,47.0,46.0,-100.00,WSW,245,4.0,7.0,97,-99.99,,,-99.99,,2013-10-16 11:03:00,
2013-10-16 06:11:00,47.0,47.0,-100.00,West,260,4.0,7.0,98,-99.99,,,-99.99,,2013-10-16 11:11:00,
2013-10-16 06:12:00,47.0,46.0,-100.00,WSW,245,4.0,7.0,97,-99.99,,,-99.99,,2013-10-16 11:12:00,
2013-10-16 06:42:00,47.0,47.0,-100.00,West,260,4.0,7.0,98,-99.99,,,-99.99,,2013-10-16 11:42:00,
2013-10-16 06:52:00,47.0,47.0,-100.00,West,260,4.0,7.0,98,-99.99,,,-99.99,,2013-10-16 11:52:00,
2013-10-16 07:02:00,47.0,47.0,-100.00,West,260,4.0,7.0,98,-99.99,,,-99.99,,2013-10-16 12:02:00,
2013-10-16 07:11:00,47.0,47.0,-100.00,NW,310,6.0,12.0,98,-99.99,,,-99.99,,2013-10-16 12:11:00,
2013-10-16 07:43:00,47.0,47.0,-100.00,NW,310,6.0,12.0,98,-99.99,,,-99.99,,2013-10-16 12:43:00,
2013-10-16 07:52:00,47.0,47.0,-100.00,NW,310,6.0,12.0,98,-99.99,,,-99.99,,2013-10-16 12:52:00,
2013-10-16 08:01:00,47.0,47.0,-100.00,NW,310,6.0,12.0,98,-99.99,,,-99.99,,2013-10-16 13:01:00,
2013-10-16 08:10:00,47.0,47.0,-100.00,NW,310,6.0,9.0,98,-99.99,,,-99.99,,2013-10-16 13:10:00,
2013-10-16 08:42:00,47.0,47.0,-100.00,NW,310,6.0,9.0,98,-99.99,,,-99.99,,2013-10-16 13:42:00,
2013-10-16 08:52:00,47.0,47.0,-100.00,NW,310,6.0,9.0,98,-99.99,,,-99.99,,2013-10-16 13:52:00,
2013-10-16 09:01:00,47.0,47.0,-100.00,NW,310,6.0,9.0,98,-99.99,,,-99.99,,2013-10-16 14:01:00,
2013-10-16 09:10:00,47.0,47.0,-100.00,NNW,335,8.0,12.0,97,-99.99,,,-99.99,,2013-10-16 14:10:00,
2013-10-16 09:42:00,47.0,47.0,-100.00,NNW,335,8.0,12.0,97,-99.99,,,-99.99,,2013-10-16 14:42:00,
2013-10-16 09:52:00,47.0,47.0,-100.00,NNW,335,8.0,12.0,97,-99.99,,,-99.99,,2013-10-16 14:52:00,
2013-10-16 10:02:00,47.0,47.0,-100.00,NNW,335,8.0,12.0,97,-99.99,,,-99.99,,2013-10-16 15:02:00,
2013-10-16 10:10:00,49.0,46.0,-100.00,North,0,4.0,11.0,90,-99.99,,,-99.99,,2013-10-16 15:10:00,
2013-10-16 10:43:00,49.0,46.0,-100.00,North,0,4.0,11.0,90,-99.99,,,-99.99,,2013-10-16 15:43:00,
2013-10-16 10:53:00,49.0,46.0,-100.00,North,0,4.0,11.0,90,-99.99,,,-99.99,,2013-10-16 15:53:00,
2013-10-16 11:03:00,49.0,46.0,-100.00,North,0,4.0,11.0,90,-99.99,,,-99.99,,2013-10-16 16:03:00,
2013-10-16 11:42:00,49.0,44.0,-100.00,NW,320,4.0,15.0,83,-99.99,,,-99.99,,2013-10-16 16:42:00,
2013-10-16 11:53:00,49.0,44.0,-100.00,NW,320,4.0,15.0,83,-99.99,,,-99.99,,2013-10-16 16:53:00,
2013-10-16 12:02:00,49.0,44.0,-100.00,NW,320,4.0,15.0,83,-99.99,,,-99.99,,2013-10-16 17:02:00,
2013-10-16 12:43:00,49.0,43.0,-100.00,NNW,330,4.0,11.0,80,-99.99,,,-99.99,,2013-10-16 17:43:00,
2013-10-16 12:52:00,49.0,43.0,-100.00,NNW,330,4.0,11.0,80,-99.99,,,-99.99,,2013-10-16 17:52:00,
2013-10-16 13:02:00,49.0,43.0,-100.00,NNW,330,4.0,11.0,80,-99.99,,,-99.99,,2013-10-16 18:02:00,
2013-10-16 13:10:00,49.0,43.0,-100.00,NNW,330,7.0,12.0,78,-99.99,,,-99.99,,2013-10-16 18:10:00,
2013-10-16 13:42:00,49.0,43.0,-100.00,NNW,330,7.0,12.0,78,-99.99,,,-99.99,,2013-10-16 18:42:00,
2013-10-16 13:52:00,49.0,43.0,-100.00,NNW,330,7.0,12.0,78,-99.99,,,-99.99,,2013-10-16 18:52:00,
2013-10-16 14:02:00,49.0,43.0,-100.00,NNW,330,7.0,12.0,78,-99.99,,,-99.99,,2013-10-16 19:02:00,
2013-10-16 14:10:00,50.0,41.0,-100.00,NNW,335,5.0,12.0,71,-99.99,,,-99.99,,2013-10-16 19:10:00,
2013-10-16 14:42:00,50.0,41.0,-100.00,NNW,335,5.0,12.0,71,-99.99,,,-99.99,,2013-10-16 19:42:00,
2013-10-16 14:52:00,50.0,41.0,-100.00,NNW,335,5.0,12.0,71,-99.99,,,-99.99,,2013-10-16 19:52:00,
2013-10-16 15:03:00,50.0,41.0,-100.00,NNW,335,5.0,12.0,71,-99.99,,,-99.99,,2013-10-16 20:03:00,
2013-10-16 15:11:00,49.0,40.0,-100.00,WNW,290,6.0,12.0,70,-99.99,,,-99.99,,2013-10-16 20:11:00,
2013-10-16 15:43:00,49.0,40.0,-100.00,WNW,290,6.0,12.0,70,-99.99,,,-99.99,,2013-10-16 20:43:00,
2013-10-16 15:52:00,49.0,40.0,-100.00,WNW,290,6.0,12.0,70,-99.99,,,-99.99,,2013-10-16 20:52:00,
2013-10-16 16:02:00,49.0,40.0,-100.00,WNW,290,6.0,12.0,70,-99.99,,,-99.99,,2013-10-16 21:02:00,
2013-10-16 16:12:00,49.0,40.0,-100.00,WNW,285,3.0,10.0,71,-99.99,,,-99.99,,2013-10-16 21:12:00,
2013-10-16 16:44:00,49.0,40.0,-100.00,WNW,285,3.0,10.0,71,-99.99,,,-99.99,,2013-10-16 21:44:00,
2013-10-16 16:54:00,49.0,40.0,-100.00,WNW,285,3.0,10.0,71,-99.99,,,-99.99,,2013-10-16 21:54:00,
2013-10-16 17:04:00,49.0,40.0,-100.00,WNW,285,3.0,10.0,71,-99.99,,,-99.99,,2013-10-16 22:04:00,
2013-10-16 17:11:00,48.0,40.0,-100.00,NW,310,2.0,4.0,75,-99.99,,,-99.99,,2013-10-16 22:11:00,
2013-10-16 17:42:00,48.0,40.0,-100.00,NW,310,2.0,4.0,75,-99.99,,,-99.99,,2013-10-16 22:42:00,
2013-10-16 17:54:00,48.0,40.0,-100.00,NW,310,2.0,4.0,75,-99.99,,,-99.99,,2013-10-16 22:54:00,
2013-10-16 18:02:00,48.0,40.0,-100.00,NW,310,2.0,4.0,75,-99.99,,,-99.99,,2013-10-16 23:02:00,
2013-10-16 18:42:00,47.0,41.0,-100.00,NW,320,1.0,6.0,79,-99.99,,,-99.99,,2013-10-16 23:42:00,
2013-10-16 18:53:00,47.0,41.0,-100.00,NW,320,1.0,6.0,79,-99.99,,,-99.99,,2013-10-16 23:53:00,
2013-10-16 19:02:00,47.0,41.0,-100.00,NW,320,1.0,6.0,79,-99.99,,,-99.99,,2013-10-17 00:02:00,
2013-10-16 19:10:00,46.0,40.0,-100.00,WNW,300,4.0,9.0,80,-99.99,,,-99.99,,2013-10-17 00:10:00,
2013-10-16 19:11:00,47.0,41.0,-100.00,NW,320,1.0,6.0,79,-99.99,,,-99.99,,2013-10-17 00:11:00,
2013-10-16 19:42:00,46.0,40.0,-100.00,WNW,300,4.0,9.0,80,-99.99,,,-99.99,,2013-10-17 00:42:00,
2013-10-16 19:52:00,46.0,40.0,-100.00,WNW,300,4.0,9.0,80,-99.99,,,-99.99,,2013-10-17 00:52:00,
2013-10-16 20:02:00,46.0,40.0,-100.00,WNW,300,4.0,9.0,80,-99.99,,,-99.99,,2013-10-17 01:02:00,
2013-10-16 20:11:00,46.0,39.0,-100.00,West,260,2.0,6.0,79,-99.99,,,-99.99,,2013-10-17 01:11:00,
2013-10-16 20:43:00,46.0,39.0,-100.00,West,260,2.0,6.0,79,-99.99,,,-99.99,,2013-10-17 01:43:00,
2013-10-16 20:52:00,46.0,39.0,-100.00,West,260,2.0,6.0,79,-99.99,,,-99.99,,2013-10-17 01:52:00,
2013-10-16 21:03:00,46.0,39.0,-100.00,West,260,2.0,6.0,79,-99.99,,,-99.99,,2013-10-17 02:03:00,
2013-10-16 21:11:00,45.0,40.0,-100.00,WSW,240,2.0,3.0,83,-99.99,,,-99.99,,2013-10-17 02:11:00,
2013-10-16 21:53:00,45.0,40.0,-100.00,WSW,240,2.0,3.0,83,-99.99,,,-99.99,,2013-10-17 02:53:00,
2013-10-16 22:02:00,45.0,40.0,-100.00,WSW,240,2.0,3.0,83,-99.99,,,-99.99,,2013-10-17 03:02:00,
2013-10-16 22:45:00,44.0,40.0,-100.00,WSW,245,2.0,4.0,86,-99.99,,,-99.99,,2013-10-17 03:45:00,
2013-10-16 22:54:00,44.0,40.0,-100.00,WSW,245,2.0,4.0,86,-99.99,,,-99.99,,2013-10-17 03:54:00,
2013-10-16 23:04:00,44.0,40.0,-100.00,WSW,245,2.0,4.0,86,-99.99,,,-99.99,,2013-10-17 04:04:00,
2013-10-16 23:10:00,38.0,36.0,-100.00,WNW,285,0.0,0.0,92,-99.99,,,-99.99,,2013-10-17 04:10:00,
2013-10-16 23:43:00,38.0,36.0,-100.00,WNW,285,0.0,0.0,92,-99.99,,,-99.99,,2013-10-17 04:43:00,
2013-10-16 23:54:00,38.0,36.0,-100.00,WNW,285,0.0,0.0,92,-99.99,,,-99.99,,2013-10-17 04:54:00,